Time;durP1;ratioP1;P1;durP2;ratioP2;P2;SDS_P1;SDS_P2;PMS_P1;PMS_P2;Temp;Humidity;BMP_temperature;BMP_pressure;BME280_temperature;BME280_humidity;BME280_pressure;Samples;Min_cycle;Max_cycle;Signal;HPM_P1;HPM_P2
2023/02/17 00:01:35;;;;;;;49.75;28.17;;;;;;;;;;5057102;28;20338;-70
2023/02/17 00:04:21;;;;;;;52.10;28.40;;;;;;;;;;5059014;28;20025;-73
2023/02/17 00:07:09;;;;;;;51.15;28.42;;;;;;;;;;5071456;28;20028;-70
2023/02/17 00:09:55;;;;;;;47.20;26.83;;;;;;;;;;5057493;28;20074;-70
2023/02/17 00:12:41;;;;;;;48.78;26.92;;;;;;;;;;5058326;28;20021;-71
2023/02/17 00:15:26;;;;;;;51.65;28.08;;;;;;;;;;5058304;28;20108;-70
2023/02/17 00:18:12;;;;;;;51.75;27.85;;;;;;;;;;5058412;28;20028;-70
2023/02/17 00:20:57;;;;;;;53.75;29.08;;;;;;;;;;5057142;28;20119;-71
2023/02/17 00:23:44;;;;;;;51.80;28.85;;;;;;;;;;5058295;28;20017;-70
2023/02/17 00:26:30;;;;;;;48.10;27.27;;;;;;;;;;5057667;28;20032;-71
2023/02/17 00:29:15;;;;;;;47.55;26.52;;;;;;;;;;5058056;28;20017;-69
2023/02/17 00:32:01;;;;;;;52.67;28.17;;;;;;;;;;5057507;28;20064;-70
2023/02/17 00:34:47;;;;;;;54.75;28.48;;;;;;;;;;5057715;28;20013;-71
2023/02/17 00:37:34;;;;;;;47.88;26.40;;;;;;;;;;5056887;28;20049;-71
2023/02/17 00:40:20;;;;;;;48.42;26.45;;;;;;;;;;5057697;28;20017;-71
2023/02/17 00:43:05;;;;;;;48.20;26.98;;;;;;;;;;5056997;28;20017;-70
2023/02/17 00:45:51;;;;;;;52.85;27.83;;;;;;;;;;5057525;28;20357;-70
2023/02/17 00:48:36;;;;;;;49.55;27.25;;;;;;;;;;5057495;28;20458;-70
2023/02/17 00:51:22;;;;;;;48.78;27.55;;;;;;;;;;5057110;28;20464;-72
2023/02/17 00:54:08;;;;;;;46.97;25.98;;;;;;;;;;5057196;28;20110;-70
2023/02/17 00:56:54;;;;;;;50.05;27.52;;;;;;;;;;5056598;28;20374;-71
2023/02/17 00:59:39;;;;;;;49.83;27.13;;;;;;;;;;5057375;28;20047;-71
2023/02/17 01:02:25;;;;;;;51.78;27.27;;;;;;;;;;5057029;28;20075;-70
2023/02/17 01:05:10;;;;;;;51.92;27.92;;;;;;;;;;5055552;28;20056;-70
2023/02/17 01:07:56;;;;;;;50.40;28.05;;;;;;;;;;5056604;28;20058;-71
2023/02/17 01:10:43;;;;;;;51.50;28.20;;;;;;;;;;5056069;28;20024;-71
2023/02/17 01:13:29;;;;;;;54.67;29.23;;;;;;;;;;5055533;28;20029;-70
2023/02/17 01:16:19;;;;;;;49.75;27.60;;;;;;;;;;5057142;28;20017;-71
2023/02/17 01:19:05;;;;;;;48.00;26.63;;;;;;;;;;5055273;28;20032;-71
2023/02/17 01:21:51;;;;;;;46.53;26.77;;;;;;;;;;5055488;28;20021;-70
2023/02/17 01:24:37;;;;;;;44.97;25.25;;;;;;;;;;5056550;28;20063;-72
2023/02/17 01:27:23;;;;;;;47.80;26.50;;;;;;;;;;5056245;28;20025;-71
2023/02/17 01:30:08;;;;;;;46.65;26.27;;;;;;;;;;5056689;28;20094;-69
2023/02/17 01:32:54;;;;;;;50.20;26.63;;;;;;;;;;5056146;28;20044;-69
2023/02/17 01:35:39;;;;;;;50.40;27.38;;;;;;;;;;5056373;28;20047;-70
2023/02/17 01:38:25;;;;;;;49.15;26.50;;;;;;;;;;5056821;28;20056;-71
2023/02/17 01:41:11;;;;;;;50.08;27.23;;;;;;;;;;5055368;28;20014;-70
2023/02/17 01:44:10;;;;;;;47.20;26.02;;;;;;;;;;5055461;28;20039;-70
2023/02/17 01:46:55;;;;;;;43.35;24.30;;;;;;;;;;5056049;28;20017;-72
2023/02/17 01:49:41;;;;;;;45.63;24.50;;;;;;;;;;5056695;28;20453;-71
2023/02/17 01:52:26;;;;;;;43.47;23.98;;;;;;;;;;5055899;28;20021;-71
2023/02/17 01:55:14;;;;;;;44.28;24.63;;;;;;;;;;5056916;28;20029;-72
2023/02/17 01:58:01;;;;;;;45.45;24.20;;;;;;;;;;5056163;28;20036;-70
2023/02/17 02:00:49;;;;;;;43.17;24.30;;;;;;;;;;5056432;28;20017;-69
2023/02/17 02:03:36;;;;;;;41.90;24.52;;;;;;;;;;5056227;28;20331;-72
2023/02/17 02:06:24;;;;;;;45.60;24.63;;;;;;;;;;5056519;28;20139;-70
2023/02/17 02:09:14;;;;;;;45.63;23.65;;;;;;;;;;5056355;28;20503;-71
2023/02/17 02:11:59;;;;;;;44.28;23.90;;;;;;;;;;5056168;28;20029;-71
2023/02/17 02:14:45;;;;;;;40.97;22.67;;;;;;;;;;5055497;28;20471;-71
2023/02/17 02:17:50;;;;;;;38.47;21.42;;;;;;;;;;5054719;28;20025;-72
2023/02/17 02:20:58;;;;;;;43.58;22.20;;;;;;;;;;5055835;28;20385;-71
2023/02/17 02:23:50;;;;;;;38.40;22.25;;;;;;;;;;5055647;28;20018;-72
2023/02/17 02:26:54;;;;;;;38.25;21.08;;;;;;;;;;5055699;28;20076;-72
2023/02/17 02:29:45;;;;;;;41.78;22.05;;;;;;;;;;5055503;28;20025;-73
2023/02/17 02:32:49;;;;;;;39.53;22.30;;;;;;;;;;5055115;28;20064;-70
2023/02/17 02:35:35;;;;;;;38.95;21.65;;;;;;;;;;5054638;28;20036;-71
2023/02/17 02:38:40;;;;;;;40.33;22.13;;;;;;;;;;5055693;28;20040;-71
2023/02/17 02:41:29;;;;;;;40.53;21.25;;;;;;;;;;5052981;28;20056;-70
2023/02/17 02:44:17;;;;;;;39.78;21.65;;;;;;;;;;5055560;28;20048;-71
2023/02/17 02:47:04;;;;;;;38.35;20.35;;;;;;;;;;5055103;28;20028;-72
2023/02/17 02:49:49;;;;;;;36.30;19.92;;;;;;;;;;5054566;28;20025;-72
2023/02/17 02:52:41;;;;;;;38.78;20.92;;;;;;;;;;5054946;28;20029;-72
2023/02/17 02:55:46;;;;;;;35.53;20.35;;;;;;;;;;5055240;28;20028;-70
2023/02/17 02:58:37;;;;;;;34.67;20.10;;;;;;;;;;5055124;28;20075;-72
2023/02/17 03:01:46;;;;;;;34.70;19.27;;;;;;;;;;5054322;28;20013;-71
2023/02/17 03:04:47;;;;;;;32.40;18.70;;;;;;;;;;5028129;28;20067;-70
2023/02/17 03:07:34;;;;;;;32.80;18.25;;;;;;;;;;5055224;28;20378;-72
2023/02/17 03:10:20;;;;;;;33.33;19.38;;;;;;;;;;5054880;28;20025;-72
2023/02/17 03:13:06;;;;;;;36.10;19.08;;;;;;;;;;5054829;28;20032;-71
2023/02/17 03:15:51;;;;;;;33.78;18.58;;;;;;;;;;5055350;28;20104;-71
2023/02/17 03:18:37;;;;;;;33.90;19.27;;;;;;;;;;5054689;28;20353;-71
2023/02/17 03:21:24;;;;;;;33.58;18.85;;;;;;;;;;5055007;28;20031;-71
2023/02/17 03:24:10;;;;;;;35.85;19.40;;;;;;;;;;5054716;28;20032;-70
2023/02/17 03:26:56;;;;;;;33.63;19.05;;;;;;;;;;5054350;28;20445;-70
2023/02/17 03:29:41;;;;;;;42.60;23.90;;;;;;;;;;5064020;28;20033;-69
2023/02/17 03:32:27;;;;;;;41.20;23.60;;;;;;;;;;5070987;28;20381;-70
2023/02/17 03:35:13;;;;;;;45.10;24.60;;;;;;;;;;5060214;28;20044;-72
2023/02/17 03:37:58;;;;;;;44.83;24.60;;;;;;;;;;5055740;28;20443;-71
2023/02/17 03:40:44;;;;;;;41.38;23.63;;;;;;;;;;5054984;28;20046;-71
2023/02/17 03:43:29;;;;;;;43.30;24.15;;;;;;;;;;5054227;28;20053;-71
2023/02/17 03:46:16;;;;;;;45.33;23.83;;;;;;;;;;5053868;28;20047;-72
2023/02/17 03:49:01;;;;;;;41.13;22.63;;;;;;;;;;5058714;28;20021;-69
2023/02/17 03:51:47;;;;;;;39.80;23.65;;;;;;;;;;5061224;28;20017;-69
2023/02/17 03:54:33;;;;;;;41.28;21.73;;;;;;;;;;5056465;28;20025;-70
2023/02/17 03:57:18;;;;;;;39.30;22.10;;;;;;;;;;5054856;28;20036;-71
2023/02/17 04:00:05;;;;;;;35.15;20.67;;;;;;;;;;5055182;28;20049;-71
2023/02/17 04:02:50;;;;;;;32.97;19.65;;;;;;;;;;5054172;28;20044;-72
2023/02/17 04:05:36;;;;;;;36.20;20.08;;;;;;;;;;5054991;28;20021;-71
2023/02/17 04:08:21;;;;;;;36.30;20.05;;;;;;;;;;5054780;28;20053;-71
2023/02/17 04:11:08;;;;;;;34.40;19.65;;;;;;;;;;5054571;28;20021;-71
2023/02/17 04:13:54;;;;;;;38.97;20.33;;;;;;;;;;5054244;28;20025;-71
2023/02/17 04:16:39;;;;;;;38.42;19.25;;;;;;;;;;5054736;28;20096;-70
2023/02/17 04:19:25;;;;;;;36.15;20.30;;;;;;;;;;5052787;28;20043;-71
2023/02/17 04:22:11;;;;;;;36.60;20.52;;;;;;;;;;5054694;28;20108;-72
2023/02/17 04:24:56;;;;;;;40.35;21.60;;;;;;;;;;5053441;28;20035;-71
2023/02/17 04:27:42;;;;;;;37.90;20.95;;;;;;;;;;5053272;28;20024;-71
2023/02/17 04:30:28;;;;;;;38.08;21.85;;;;;;;;;;5053673;28;20055;-71
2023/02/17 04:33:13;;;;;;;40.60;22.65;;;;;;;;;;5052370;28;20064;-71
2023/02/17 04:35:59;;;;;;;39.10;22.10;;;;;;;;;;5054339;28;20087;-70
2023/02/17 04:38:45;;;;;;;38.88;22.27;;;;;;;;;;5053580;28;20025;-72
2023/02/17 04:41:30;;;;;;;39.22;21.95;;;;;;;;;;5056132;28;20025;-72
2023/02/17 04:44:16;;;;;;;38.20;20.83;;;;;;;;;;5057928;28;20086;-72
2023/02/17 04:47:01;;;;;;;37.78;20.95;;;;;;;;;;5056781;28;20052;-70
2023/02/17 04:49:47;;;;;;;40.80;22.30;;;;;;;;;;5057637;28;20099;-71
2023/02/17 04:52:32;;;;;;;39.17;21.95;;;;;;;;;;5057472;28;20021;-72
2023/02/17 04:55:18;;;;;;;39.03;21.83;;;;;;;;;;5057732;28;20090;-72
2023/02/17 04:58:04;;;;;;;38.80;21.45;;;;;;;;;;5057536;28;20453;-72
2023/02/17 05:00:49;;;;;;;38.33;22.38;;;;;;;;;;5057046;28;20053;-71
2023/02/17 05:03:35;;;;;;;42.72;21.67;;;;;;;;;;5057787;28;20017;-71
2023/02/17 05:06:21;;;;;;;44.33;23.73;;;;;;;;;;5057364;28;20021;-71
2023/02/17 05:09:06;;;;;;;45.08;23.88;;;;;;;;;;5057462;28;20453;-72
2023/02/17 05:11:52;;;;;;;41.78;23.05;;;;;;;;;;5057138;28;20033;-72
2023/02/17 05:14:37;;;;;;;46.17;24.38;;;;;;;;;;5057258;28;20028;-71
2023/02/17 05:17:23;;;;;;;49.97;25.95;;;;;;;;;;5057222;28;20028;-70
2023/02/17 05:20:09;;;;;;;49.15;27.00;;;;;;;;;;5056841;28;20058;-70
2023/02/17 05:22:55;;;;;;;50.30;27.25;;;;;;;;;;5056936;28;20021;-70
2023/02/17 05:25:40;;;;;;;56.65;27.52;;;;;;;;;;5056345;28;20020;-71
2023/02/17 05:28:26;;;;;;;51.10;28.13;;;;;;;;;;5056393;28;20098;-71
2023/02/17 05:31:12;;;;;;;48.72;27.27;;;;;;;;;;5056359;28;20075;-71
2023/02/17 05:33:57;;;;;;;54.13;29.38;;;;;;;;;;5057001;28;20040;-72
2023/02/17 05:36:43;;;;;;;59.30;29.77;;;;;;;;;;5057439;28;20487;-71
2023/02/17 05:39:28;;;;;;;62.03;31.02;;;;;;;;;;5056933;28;20024;-72
2023/02/17 05:42:14;;;;;;;58.78;31.40;;;;;;;;;;5056732;28;20342;-72
2023/02/17 05:44:59;;;;;;;57.33;32.08;;;;;;;;;;5056368;28;20500;-72
2023/02/17 05:47:45;;;;;;;65.70;32.60;;;;;;;;;;5056291;28;20033;-71
2023/02/17 05:50:31;;;;;;;63.10;32.65;;;;;;;;;;5056559;28;20107;-71
2023/02/17 05:53:16;;;;;;;107.47;52.38;;;;;;;;;;5055747;28;20029;-72
2023/02/17 05:56:02;;;;;;;63.17;33.83;;;;;;;;;;5056980;28;20025;-72
2023/02/17 05:58:47;;;;;;;59.13;33.40;;;;;;;;;;5056524;28;20032;-72
2023/02/17 06:01:33;;;;;;;65.70;35.38;;;;;;;;;;5055750;28;20017;-72
2023/02/17 06:04:19;;;;;;;64.22;35.53;;;;;;;;;;5055383;28;20021;-71
2023/02/17 06:07:04;;;;;;;61.90;34.28;;;;;;;;;;5056200;28;20025;-71
2023/02/17 06:09:50;;;;;;;65.70;36.10;;;;;;;;;;5056571;28;20031;-72
2023/02/17 06:12:35;;;;;;;70.57;35.90;;;;;;;;;;5055185;28;20122;-71
2023/02/17 06:15:21;;;;;;;70.45;36.38;;;;;;;;;;5055536;28;20052;-70
2023/02/17 06:18:07;;;;;;;70.80;37.33;;;;;;;;;;5054680;28;20021;-71
2023/02/17 06:20:56;;;;;;;70.22;36.88;;;;;;;;;;5054871;28;20025;-72
2023/02/17 06:23:42;;;;;;;66.93;36.42;;;;;;;;;;5054501;28;20044;-71
2023/02/17 06:26:27;;;;;;;68.70;36.70;;;;;;;;;;5055730;28;20523;-71
2023/02/17 06:29:13;;;;;;;69.78;37.67;;;;;;;;;;5055789;28;20025;-71
2023/02/17 06:31:58;;;;;;;67.55;37.25;;;;;;;;;;5055038;28;20045;-71
2023/02/17 06:34:44;;;;;;;72.68;38.75;;;;;;;;;;5055168;28;20056;-71
2023/02/17 06:37:30;;;;;;;71.82;39.28;;;;;;;;;;5055736;28;20075;-71
2023/02/17 06:40:15;;;;;;;69.63;38.92;;;;;;;;;;5055064;28;20434;-71
2023/02/17 06:43:01;;;;;;;75.82;40.17;;;;;;;;;;5053981;28;20025;-71
2023/02/17 06:45:46;;;;;;;76.65;40.80;;;;;;;;;;5055038;28;20052;-70
2023/02/17 06:48:32;;;;;;;72.15;39.33;;;;;;;;;;5066366;28;20020;-71
2023/02/17 06:51:17;;;;;;;77.60;41.47;;;;;;;;;;5064773;28;20104;-70
2023/02/17 06:54:03;;;;;;;80.70;43.25;;;;;;;;;;5066554;28;20028;-71
2023/02/17 06:56:49;;;;;;;79.57;41.95;;;;;;;;;;5056387;28;20016;-71
2023/02/17 06:59:34;;;;;;;79.43;42.38;;;;;;;;;;5055874;28;20021;-71
2023/02/17 07:02:20;;;;;;;79.22;42.70;;;;;;;;;;5054605;28;20024;-73
2023/02/17 07:05:06;;;;;;;72.57;41.92;;;;;;;;;;5054276;28;20013;-72
2023/02/17 07:07:52;;;;;;;76.20;42.25;;;;;;;;;;5055277;28;20421;-72
2023/02/17 07:10:38;;;;;;;80.47;43.45;;;;;;;;;;5054624;28;20095;-72
2023/02/17 07:13:23;;;;;;;81.35;42.33;;;;;;;;;;5060395;28;20021;-70
2023/02/17 07:16:10;;;;;;;84.57;43.05;;;;;;;;;;5065483;28;20021;-70
2023/02/17 07:18:56;;;;;;;83.40;45.03;;;;;;;;;;5057316;28;20113;-71
2023/02/17 07:21:42;;;;;;;78.22;43.03;;;;;;;;;;5054887;28;20036;-73
2023/02/17 07:24:27;;;;;;;80.05;43.67;;;;;;;;;;5055074;28;20029;-71
2023/02/17 07:27:13;;;;;;;81.20;44.13;;;;;;;;;;5055340;28;20017;-72
2023/02/17 07:29:59;;;;;;;79.57;44.03;;;;;;;;;;5054745;28;20445;-71
2023/02/17 07:32:44;;;;;;;79.72;43.38;;;;;;;;;;5054424;28;20064;-68
2023/02/17 07:35:30;;;;;;;80.13;43.15;;;;;;;;;;5054033;28;20028;-69
2023/02/17 07:38:16;;;;;;;75.47;43.55;;;;;;;;;;5055165;28;20021;-69
2023/02/17 07:41:05;;;;;;;74.22;42.20;;;;;;;;;;5054785;28;20013;-70
2023/02/17 07:43:52;;;;;;;74.43;42.05;;;;;;;;;;5053717;28;20044;-70
2023/02/17 07:46:41;;;;;;;87.78;48.05;;;;;;;;;;5053445;28;20096;-69
2023/02/17 07:49:27;;;;;;;78.10;42.25;;;;;;;;;;5053625;28;20024;-70
2023/02/17 07:52:14;;;;;;;74.78;41.88;;;;;;;;;;5054691;28;20029;-71
2023/02/17 07:55:00;;;;;;;84.97;44.33;;;;;;;;;;5053815;28;20515;-70
2023/02/17 07:57:46;;;;;;;77.57;43.25;;;;;;;;;;5054542;28;20032;-73
2023/02/17 08:00:31;;;;;;;77.88;41.72;;;;;;;;;;5053433;28;20021;-73
2023/02/17 08:03:17;;;;;;;77.97;43.85;;;;;;;;;;5054545;28;20448;-74
2023/02/17 08:06:03;;;;;;;76.85;43.63;;;;;;;;;;5054982;28;20104;-72
2023/02/17 08:14:57;;;;;;;70.53;40.35;;;;;;;;;;5054698;28;20027;-72
2023/02/17 08:17:43;;;;;;;74.47;41.95;;;;;;;;;;5056344;28;20104;-72
2023/02/17 08:20:28;;;;;;;69.20;41.03;;;;;;;;;;5058083;28;20135;-72
2023/02/17 08:23:14;;;;;;;72.85;41.42;;;;;;;;;;5058026;28;20044;-72
2023/02/17 08:26:00;;;;;;;69.38;40.13;;;;;;;;;;5057032;28;20028;-72
2023/02/17 08:28:47;;;;;;;71.75;39.75;;;;;;;;;;5058759;28;20333;-74
2023/02/17 08:31:34;;;;;;;75.13;40.28;;;;;;;;;;5058098;28;20077;-73
2023/02/17 08:34:19;;;;;;;69.20;38.78;;;;;;;;;;5058535;28;20016;-74
2023/02/17 08:37:06;;;;;;;74.50;39.92;;;;;;;;;;5057039;28;20024;-74
2023/02/17 08:39:52;;;;;;;71.72;40.15;;;;;;;;;;5058100;28;20368;-72
2023/02/17 08:42:37;;;;;;;66.20;38.63;;;;;;;;;;5056846;28;20021;-74
2023/02/17 08:45:23;;;;;;;66.07;39.33;;;;;;;;;;5057346;28;20106;-73
2023/02/17 08:48:09;;;;;;;73.53;39.70;;;;;;;;;;5057322;28;20028;-72
2023/02/17 08:50:54;;;;;;;68.10;38.83;;;;;;;;;;5057865;28;20028;-70
2023/02/17 08:53:40;;;;;;;69.15;41.15;;;;;;;;;;5057544;28;20099;-73
2023/02/17 08:56:26;;;;;;;72.22;40.42;;;;;;;;;;5057756;28;20047;-73
2023/02/17 08:59:12;;;;;;;74.10;39.17;;;;;;;;;;5057641;28;20048;-72
2023/02/17 09:01:57;;;;;;;63.55;38.83;;;;;;;;;;5056575;28;20040;-71
2023/02/17 09:04:43;;;;;;;65.60;39.17;;;;;;;;;;5057290;28;20021;-71
2023/02/17 09:07:29;;;;;;;61.72;37.90;;;;;;;;;;5057155;28;20053;-72
2023/02/17 09:10:15;;;;;;;60.00;36.70;;;;;;;;;;5057425;28;20166;-71
2023/02/17 09:13:00;;;;;;;61.90;36.35;;;;;;;;;;5056651;28;20031;-73
2023/02/17 09:15:46;;;;;;;64.88;37.58;;;;;;;;;;5056501;28;20029;-72
2023/02/17 09:18:31;;;;;;;63.55;37.95;;;;;;;;;;5057143;28;20118;-71
2023/02/17 09:21:18;;;;;;;64.60;37.55;;;;;;;;;;5056921;28;20036;-71
2023/02/17 09:24:04;;;;;;;64.35;37.65;;;;;;;;;;5057007;28;20361;-73
2023/02/17 09:26:50;;;;;;;58.30;35.72;;;;;;;;;;5055859;28;20527;-72
2023/02/17 09:29:35;;;;;;;63.22;36.75;;;;;;;;;;5057195;28;20496;-72
2023/02/17 09:32:21;;;;;;;64.05;35.13;;;;;;;;;;5055583;28;20381;-71
2023/02/17 09:35:09;;;;;;;59.15;35.70;;;;;;;;;;5056432;28;20044;-73
2023/02/17 09:37:55;;;;;;;60.15;35.58;;;;;;;;;;5056923;28;20087;-73
2023/02/17 09:40:42;;;;;;;55.88;34.05;;;;;;;;;;5057179;28;20021;-74
2023/02/17 09:43:29;;;;;;;57.67;33.85;;;;;;;;;;5056875;28;20128;-72
2023/02/17 09:46:38;;;;;;;60.70;35.42;;;;;;;;;;5056627;28;20017;-72
2023/02/17 09:49:26;;;;;;;58.55;33.83;;;;;;;;;;5036496;28;20036;-73
2023/02/17 09:52:11;;;;;;;58.65;33.58;;;;;;;;;;5055757;28;20021;-73
2023/02/17 09:55:00;;;;;;;56.95;34.08;;;;;;;;;;5056802;28;20033;-76
2023/02/17 09:57:50;;;;;;;53.85;32.47;;;;;;;;;;5056857;28;20017;-74
2023/02/17 10:00:44;;;;;;;60.13;33.90;;;;;;;;;;5056810;28;20385;-73
2023/02/17 10:03:32;;;;;;;57.85;34.38;;;;;;;;;;5055584;28;20064;-73
2023/02/17 10:06:36;;;;;;;50.60;31.27;;;;;;;;;;5056769;28;20333;-74
2023/02/17 10:09:27;;;;;;;51.63;31.60;;;;;;;;;;5056243;28;20430;-73
2023/02/17 10:12:15;;;;;;;53.33;30.90;;;;;;;;;;5054718;28;20453;-73
2023/02/17 10:15:04;;;;;;;49.97;30.02;;;;;;;;;;5055460;28;20024;-74
2023/02/17 10:18:03;;;;;;;52.38;31.65;;;;;;;;;;5055515;28;20087;-73
2023/02/17 10:20:51;;;;;;;51.15;30.40;;;;;;;;;;5055249;28;20159;-73
2023/02/17 10:23:37;;;;;;;50.55;31.25;;;;;;;;;;5055370;28;20422;-73
2023/02/17 10:26:38;;;;;;;58.15;31.30;;;;;;;;;;5055332;28;20107;-74
2023/02/17 10:29:34;;;;;;;53.80;31.75;;;;;;;;;;5056036;28;20159;-72
2023/02/17 10:32:21;;;;;;;51.25;31.75;;;;;;;;;;5054566;28;20052;-73
2023/02/17 10:35:21;;;;;;;52.83;31.60;;;;;;;;;;5055378;28;20040;-74
2023/02/17 10:38:17;;;;;;;55.25;32.35;;;;;;;;;;5056160;28;20017;-74
2023/02/17 10:41:03;;;;;;;65.05;32.00;;;;;;;;;;5064665;28;20012;-74
2023/02/17 10:43:52;;;;;;;56.05;32.70;;;;;;;;;;5056430;28;20021;-74
2023/02/17 10:46:39;;;;;;;49.97;30.13;;;;;;;;;;5064106;28;20031;-74
2023/02/17 10:49:36;;;;;;;54.75;31.65;;;;;;;;;;5054765;28;20365;-73
2023/02/17 10:52:30;;;;;;;57.42;30.92;;;;;;;;;;5055813;28;20025;-73
2023/02/17 10:55:35;;;;;;;50.63;31.52;;;;;;;;;;5054583;28;20456;-74
2023/02/17 10:58:25;;;;;;;52.45;31.17;;;;;;;;;;5054430;28;20033;-73
2023/02/17 11:01:11;;;;;;;54.50;32.22;;;;;;;;;;5055311;28;20013;-74
2023/02/17 11:04:05;;;;;;;52.60;31.00;;;;;;;;;;5055704;28;20107;-73
2023/02/17 11:06:52;;;;;;;50.78;30.00;;;;;;;;;;5055767;28;20036;-72
2023/02/17 11:09:39;;;;;;;50.53;28.52;;;;;;;;;;5056114;28;20488;-76
2023/02/17 11:12:32;;;;;;;46.60;28.80;;;;;;;;;;5055788;28;20017;-72
2023/02/17 11:15:19;;;;;;;46.58;28.50;;;;;;;;;;5067945;28;20032;-73
2023/02/17 11:18:10;;;;;;;44.70;28.30;;;;;;;;;;5070122;28;20031;-72
2023/02/17 11:21:14;;;;;;;47.28;27.98;;;;;;;;;;5054732;28;20027;-72
2023/02/17 11:24:02;;;;;;;47.92;29.70;;;;;;;;;;5070961;28;20025;-73
2023/02/17 11:26:59;;;;;;;47.22;28.25;;;;;;;;;;5063355;28;20031;-73
2023/02/17 11:29:44;;;;;;;46.95;28.02;;;;;;;;;;5060422;28;20487;-73
2023/02/17 11:32:31;;;;;;;40.40;26.63;;;;;;;;;;5055516;28;20049;-73
2023/02/17 11:35:20;;;;;;;44.38;27.35;;;;;;;;;;5053889;28;20025;-73
2023/02/17 11:38:28;;;;;;;44.33;27.45;;;;;;;;;;5054238;28;20106;-74
2023/02/17 11:41:14;;;;;;;47.15;27.05;;;;;;;;;;5054830;28;20044;-72
2023/02/17 11:44:00;;;;;;;41.03;25.90;;;;;;;;;;5054919;28;20021;-73
2023/02/17 11:46:49;;;;;;;45.03;26.63;;;;;;;;;;5055277;28;20029;-73
2023/02/17 11:49:40;;;;;;;47.65;28.38;;;;;;;;;;5053646;28;20059;-73
2023/02/17 11:52:45;;;;;;;51.45;30.27;;;;;;;;;;5058067;28;20092;-74
2023/02/17 11:55:33;;;;;;;48.47;29.10;;;;;;;;;;5057875;28;20025;-73
2023/02/17 11:58:26;;;;;;;47.30;28.73;;;;;;;;;;5058764;28;20021;-74
2023/02/17 12:01:30;;;;;;;42.35;25.88;;;;;;;;;;5058493;28;20045;-73
2023/02/17 12:04:29;;;;;;;41.22;24.17;;;;;;;;;;5058409;28;20334;-75
2023/02/17 12:07:33;;;;;;;36.67;20.55;;;;;;;;;;5058033;28;20104;-74
2023/02/17 12:10:37;;;;;;;33.47;20.17;;;;;;;;;;5059239;28;20095;-76
2023/02/17 12:13:28;;;;;;;32.95;20.08;;;;;;;;;;5045091;28;20036;-74
2023/02/17 12:16:23;;;;;;;34.70;21.90;;;;;;;;;;5061927;28;20021;-75
2023/02/17 12:19:11;;;;;;;35.05;22.20;;;;;;;;;;5040065;28;20025;-76
2023/02/17 12:22:02;;;;;;;34.65;21.15;;;;;;;;;;5066125;28;20101;-74
2023/02/17 12:24:53;;;;;;;36.80;21.38;;;;;;;;;;5076267;28;20035;-74
2023/02/17 12:27:42;;;;;;;36.25;22.05;;;;;;;;;;5076221;28;20035;-76
2023/02/17 12:30:34;;;;;;;35.47;21.85;;;;;;;;;;5077452;28;20372;-76
2023/02/17 12:33:26;;;;;;;37.42;22.55;;;;;;;;;;5076290;28;20095;-75
2023/02/17 12:36:17;;;;;;;33.63;20.50;;;;;;;;;;5075819;28;20112;-76
2023/02/17 12:39:10;;;;;;;36.97;21.63;;;;;;;;;;5076464;28;20425;-75
2023/02/17 12:42:15;;;;;;;35.75;21.48;;;;;;;;;;5074977;28;20017;-78
2023/02/17 12:45:05;;;;;;;34.78;21.55;;;;;;;;;;5077047;28;20083;-75
2023/02/17 12:47:55;;;;;;;33.50;20.35;;;;;;;;;;5075592;28;20085;-75
2023/02/17 12:50:50;;;;;;;32.50;20.77;;;;;;;;;;5076631;28;20024;-76
2023/02/17 12:53:41;;;;;;;32.38;19.95;;;;;;;;;;5076715;28;20032;-75
2023/02/17 12:56:45;;;;;;;32.42;18.73;;;;;;;;;;5075438;28;20453;-75
2023/02/17 12:59:33;;;;;;;34.25;21.33;;;;;;;;;;5075668;28;20029;-74
2023/02/17 13:02:22;;;;;;;31.58;19.77;;;;;;;;;;5073998;28;20009;-76
2023/02/17 13:05:17;;;;;;;33.58;19.67;;;;;;;;;;5075374;28;20020;-76
2023/02/17 13:08:26;;;;;;;30.48;19.73;;;;;;;;;;5076278;28;20361;-76
2023/02/17 13:11:32;;;;;;;32.55;21.23;;;;;;;;;;5075458;28;20028;-74
2023/02/17 13:14:24;;;;;;;35.17;19.65;;;;;;;;;;5075801;28;20075;-76
2023/02/17 13:17:29;;;;;;;29.55;19.35;;;;;;;;;;5075252;28;20082;-75
2023/02/17 13:20:26;;;;;;;29.65;18.70;;;;;;;;;;5075320;28;20107;-75
2023/02/17 13:23:13;;;;;;;29.15;18.25;;;;;;;;;;5075162;28;20020;-75
2023/02/17 13:26:13;;;;;;;29.10;18.08;;;;;;;;;;5075997;28;20486;-75
2023/02/17 13:29:08;;;;;;;28.80;17.98;;;;;;;;;;5075199;28;20111;-76
2023/02/17 13:31:58;;;;;;;27.25;17.02;;;;;;;;;;5075446;28;20052;-75
2023/02/17 13:34:45;;;;;;;26.20;16.58;;;;;;;;;;5075253;28;20025;-75
2023/02/17 13:37:30;;;;;;;24.63;16.08;;;;;;;;;;5075786;28;20040;-76
2023/02/17 13:40:19;;;;;;;24.60;15.07;;;;;;;;;;5077046;28;20421;-75
2023/02/17 13:43:17;;;;;;;27.60;15.85;;;;;;;;;;5076077;28;20075;-75
2023/02/17 13:46:04;;;;;;;27.00;15.70;;;;;;;;;;5076265;28;20028;-75
2023/02/17 13:49:00;;;;;;;25.52;15.05;;;;;;;;;;5085126;28;20063;-73
2023/02/17 13:51:45;;;;;;;22.35;12.93;;;;;;;;;;5074534;28;20364;-76
2023/02/17 13:54:31;;;;;;;22.50;14.63;;;;;;;;;;5075803;28;20365;-74
2023/02/17 13:57:26;;;;;;;21.88;13.35;;;;;;;;;;5074767;28;20031;-73
2023/02/17 14:00:17;;;;;;;22.63;13.65;;;;;;;;;;5075327;28;20452;-76
2023/02/17 14:03:02;;;;;;;23.75;13.65;;;;;;;;;;5075199;28;20025;-76
2023/02/17 14:05:49;;;;;;;20.75;13.15;;;;;;;;;;5075296;28;20467;-76
2023/02/17 14:08:39;;;;;;;28.00;13.75;;;;;;;;;;5060993;28;20028;-73
2023/02/17 14:11:26;;;;;;;31.45;14.75;;;;;;;;;;5074970;28;20054;-75
2023/02/17 14:14:12;;;;;;;28.05;14.60;;;;;;;;;;5074115;28;20082;-76
2023/02/17 14:16:59;;;;;;;25.50;14.95;;;;;;;;;;5073621;28;20051;-78
2023/02/17 14:19:46;;;;;;;25.63;14.80;;;;;;;;;;5074180;28;20111;-76
2023/02/17 14:22:32;;;;;;;25.48;15.65;;;;;;;;;;5074050;28;20020;-76
2023/02/17 14:25:25;;;;;;;33.88;16.77;;;;;;;;;;5074755;28;20395;-75
2023/02/17 14:28:19;;;;;;;25.88;16.25;;;;;;;;;;5074796;28;20032;-76
2023/02/17 14:31:09;;;;;;;26.35;15.60;;;;;;;;;;5074330;28;20373;-76
2023/02/17 14:33:59;;;;;;;34.90;16.75;;;;;;;;;;5074211;28;20025;-75
2023/02/17 14:36:45;;;;;;;28.75;15.98;;;;;;;;;;5073617;28;20090;-75
2023/02/17 14:39:30;;;;;;;26.48;16.40;;;;;;;;;;5034013;28;20502;-76
2023/02/17 14:42:16;;;;;;;25.70;15.60;;;;;;;;;;5048718;28;20029;-75
2023/02/17 14:45:01;;;;;;;27.25;16.15;;;;;;;;;;5054450;28;20017;-75
2023/02/17 14:47:47;;;;;;;29.90;17.80;;;;;;;;;;5054358;28;20098;-75
2023/02/17 14:50:33;;;;;;;31.17;17.73;;;;;;;;;;5053962;28;20088;-75
2023/02/17 14:53:24;;;;;;;29.83;15.95;;;;;;;;;;5055485;28;20033;-73
2023/02/17 14:56:25;;;;;;;27.23;16.35;;;;;;;;;;5052692;28;20103;-75
2023/02/17 14:59:10;;;;;;;27.15;14.93;;;;;;;;;;5054115;28;20504;-74
2023/02/17 15:01:56;;;;;;;25.85;15.98;;;;;;;;;;5054898;28;20047;-74
2023/02/17 15:04:42;;;;;;;27.52;15.82;;;;;;;;;;5054047;28;20062;-74
2023/02/17 15:07:27;;;;;;;27.75;15.52;;;;;;;;;;5054863;28;20346;-73
2023/02/17 15:10:19;;;;;;;30.02;15.02;;;;;;;;;;5053767;28;20094;-74
2023/02/17 15:13:05;;;;;;;21.52;13.07;;;;;;;;;;5054393;28;20456;-74
2023/02/17 15:15:51;;;;;;;18.48;11.13;;;;;;;;;;5054719;28;20135;-74
2023/02/17 15:18:36;;;;;;;20.52;12.30;;;;;;;;;;5053213;28;20033;-74
2023/02/17 15:21:26;;;;;;;19.17;11.30;;;;;;;;;;5052877;28;20032;-75
2023/02/17 15:24:16;;;;;;;19.20;11.27;;;;;;;;;;5053746;28;20031;-75
2023/02/17 15:27:06;;;;;;;20.73;11.07;;;;;;;;;;5055033;28;20033;-76
2023/02/17 15:29:52;;;;;;;20.45;12.85;;;;;;;;;;5053602;28;20025;-76
2023/02/17 15:32:37;;;;;;;23.05;13.02;;;;;;;;;;5054603;28;20120;-79
2023/02/17 15:35:26;;;;;;;28.30;13.07;;;;;;;;;;5054806;28;20021;-78
2023/02/17 15:38:12;;;;;;;20.85;11.68;;;;;;;;;;5054077;28;20013;-79
2023/02/17 15:40:58;;;;;;;24.50;11.73;;;;;;;;;;5054648;28;20040;-78
2023/02/17 15:43:44;;;;;;;18.95;11.52;;;;;;;;;;5054377;28;20378;-68
2023/02/17 15:46:31;;;;;;;22.90;12.27;;;;;;;;;;5054693;28;20017;-77
2023/02/17 15:49:17;;;;;;;21.80;10.85;;;;;;;;;;5052894;28;20445;-77
2023/02/17 15:52:02;;;;;;;19.35;11.40;;;;;;;;;;5052874;28;20114;-77
2023/02/17 15:54:48;;;;;;;39.45;22.83;;;;;;;;;;5054240;28;20029;-78
2023/02/17 15:57:38;;;;;;;18.20;11.05;;;;;;;;;;5052800;28;20017;-77
2023/02/17 16:00:25;;;;;;;21.85;11.52;;;;;;;;;;5053193;28;20160;-79
2023/02/17 16:03:12;;;;;;;21.90;10.95;;;;;;;;;;5054946;28;20013;-78
2023/02/17 16:05:57;;;;;;;22.80;11.13;;;;;;;;;;5052639;28;20464;-77
2023/02/17 16:08:43;;;;;;;28.40;11.70;;;;;;;;;;5055423;28;20025;-74
2023/02/17 16:11:29;;;;;;;19.85;10.90;;;;;;;;;;5069149;28;20025;-77
2023/02/17 16:14:21;;;;;;;23.13;11.68;;;;;;;;;;5055037;28;20167;-78
2023/02/17 16:17:14;;;;;;;24.48;11.88;;;;;;;;;;5059780;28;20020;-76
2023/02/17 16:20:00;;;;;;;27.65;12.43;;;;;;;;;;5061142;28;20021;-77
2023/02/17 16:22:46;;;;;;;29.13;14.77;;;;;;;;;;5072591;28;20052;-76
2023/02/17 16:25:31;;;;;;;31.80;16.33;;;;;;;;;;5064820;28;20024;-77